createdAt,value
2022-08-30T00:00:29.883Z,8.28
2022-08-30T00:03:17.893Z,8.69
2022-08-30T00:06:05.753Z,8.99
2022-08-30T00:08:53.333Z,9.06
2022-08-30T00:11:40.929Z,8.70
2022-08-30T00:14:28.492Z,8.78
2022-08-30T00:17:16.071Z,8.91
2022-08-30T00:20:03.646Z,8.88
2022-08-30T00:22:51.254Z,8.95
2022-08-30T00:25:38.824Z,8.73
2022-08-30T00:28:26.420Z,8.60
2022-08-30T00:31:15.199Z,8.33
2022-08-30T00:34:03.220Z,8.94
2022-08-30T00:36:50.809Z,9.39
2022-08-30T00:39:38.412Z,8.96
2022-08-30T00:42:25.997Z,8.58
2022-08-30T00:45:13.602Z,8.58
2022-08-30T00:48:01.172Z,8.62
2022-08-30T00:50:48.773Z,8.79
2022-08-30T00:53:36.373Z,8.75
2022-08-30T00:56:23.978Z,9.10
2022-08-30T00:59:11.547Z,8.94
2022-08-30T01:01:59.201Z,9.09
2022-08-30T01:04:46.874Z,9.26
2022-08-30T01:07:34.484Z,9.65
2022-08-30T01:10:22.086Z,9.26
2022-08-30T01:13:09.697Z,9.23
2022-08-30T01:15:57.307Z,9.30
2022-08-30T01:18:44.983Z,9.64
2022-08-30T01:21:32.583Z,9.14
2022-08-30T01:24:20.195Z,9.17
2022-08-30T01:27:07.772Z,8.91
2022-08-30T01:29:55.363Z,9.58
2022-08-30T01:32:42.970Z,9.36
2022-08-30T01:35:30.574Z,9.58
2022-08-30T01:38:18.191Z,9.48
2022-08-30T01:41:05.781Z,10.26
2022-08-30T01:43:53.393Z,9.51
2022-08-30T01:46:40.967Z,9.65
2022-08-30T01:49:28.566Z,9.64
2022-08-30T01:52:16.153Z,9.15
2022-08-30T01:55:03.756Z,9.29
2022-08-30T01:57:51.331Z,10.49
2022-08-30T02:00:40.952Z,10.09
2022-08-30T02:03:28.559Z,9.60
2022-08-30T02:06:16.274Z,9.49
2022-08-30T02:09:03.847Z,9.79
2022-08-30T02:11:51.464Z,10.63
2022-08-30T02:14:39.055Z,9.73
2022-08-30T02:17:26.659Z,9.44
2022-08-30T02:20:14.240Z,10.09
2022-08-30T02:23:01.846Z,9.87
2022-08-30T02:25:49.457Z,9.98
2022-08-30T02:28:49.499Z,9.89
2022-08-30T02:31:37.790Z,9.40
2022-08-30T02:34:25.393Z,9.37
2022-08-30T02:37:12.978Z,9.43
2022-08-30T02:40:00.635Z,8.95
2022-08-30T02:42:48.281Z,9.06
2022-08-30T02:45:35.944Z,8.41
2022-08-30T02:48:23.585Z,8.59
2022-08-30T02:51:11.357Z,8.86
2022-08-30T02:53:59.387Z,8.41
2022-08-30T02:56:46.976Z,8.16
2022-08-30T02:59:34.793Z,8.41
2022-08-30T03:02:22.379Z,8.34
2022-08-30T03:05:09.964Z,8.20
2022-08-30T03:07:57.557Z,8.79
2022-08-30T03:10:45.174Z,7.98
2022-08-30T03:13:32.760Z,8.27
2022-08-30T03:16:20.394Z,8.52
2022-08-30T03:19:08.021Z,8.02
2022-08-30T03:21:55.611Z,8.76
2022-08-30T03:24:43.203Z,10.77
2022-08-30T03:27:30.818Z,9.80
2022-08-30T03:30:18.396Z,7.84
2022-08-30T03:33:05.997Z,8.17
2022-08-30T03:35:54.744Z,8.72
2022-08-30T03:38:42.341Z,8.82
2022-08-30T03:41:29.945Z,8.38
2022-08-30T03:44:17.519Z,9.78
2022-08-30T03:47:05.130Z,9.77
2022-08-30T03:49:52.724Z,9.78
2022-08-30T03:52:40.331Z,9.84
2022-08-30T03:55:27.907Z,9.45
2022-08-30T03:58:15.530Z,9.14
2022-08-30T04:01:06.955Z,9.35
2022-08-30T04:03:54.609Z,9.38
2022-08-30T04:06:42.190Z,9.13
2022-08-30T04:09:31.782Z,9.22
2022-08-30T04:12:22.597Z,9.54
2022-08-30T04:15:10.531Z,9.93
2022-08-30T04:17:58.143Z,9.90
2022-08-30T04:20:45.732Z,9.36
2022-08-30T04:23:33.424Z,9.23
2022-08-30T04:26:21.003Z,9.22
2022-08-30T04:29:08.613Z,8.84
2022-08-30T04:31:56.295Z,8.68
2022-08-30T04:34:43.966Z,8.41
2022-08-30T04:37:31.554Z,7.99
2022-08-30T04:40:19.191Z,7.25
2022-08-30T04:43:06.820Z,6.67
2022-08-30T04:45:54.485Z,6.98
2022-08-30T04:48:42.140Z,7.37
2022-08-30T04:51:29.754Z,7.72
2022-08-30T04:54:17.342Z,7.02
2022-08-30T04:57:04.964Z,7.45
2022-08-30T04:59:52.562Z,6.73
2022-08-30T05:02:40.215Z,6.76
2022-08-30T05:05:27.813Z,6.66
2022-08-30T05:08:15.454Z,6.73
2022-08-30T05:11:03.042Z,7.17
2022-08-30T05:13:50.690Z,6.97
2022-08-30T05:16:38.352Z,6.26
2022-08-30T05:19:25.992Z,7.18
2022-08-30T05:22:13.594Z,6.96
2022-08-30T05:25:01.184Z,6.65
2022-08-30T05:27:48.779Z,6.98
2022-08-30T05:30:36.369Z,7.75
2022-08-30T05:33:23.968Z,7.23
2022-08-30T05:36:11.559Z,7.36
2022-08-30T05:38:59.173Z,7.07
2022-08-30T05:41:46.760Z,7.18
2022-08-30T05:44:34.377Z,7.42
2022-08-30T05:47:21.959Z,8.19
2022-08-30T05:50:09.576Z,7.99
2022-08-30T05:52:57.158Z,8.25
2022-08-30T05:55:44.777Z,7.95
2022-08-30T05:58:32.364Z,8.30
2022-08-30T06:01:19.965Z,9.05
2022-08-30T06:04:07.563Z,9.59
2022-08-30T06:06:55.161Z,8.98
2022-08-30T06:09:42.865Z,7.84
2022-08-30T06:12:30.431Z,7.38
2022-08-30T06:15:18.115Z,7.85
2022-08-30T06:18:07.688Z,8.31
2022-08-30T06:20:55.291Z,7.90
2022-08-30T06:23:42.853Z,8.33
2022-08-30T06:26:30.450Z,8.23
2022-08-30T06:29:18.047Z,8.02
2022-08-30T06:32:05.758Z,7.90
2022-08-30T06:34:53.333Z,8.13
2022-08-30T06:37:40.934Z,8.28
2022-08-30T06:40:28.580Z,8.04
2022-08-30T06:43:16.225Z,8.39
2022-08-30T06:46:03.850Z,8.27
2022-08-30T06:48:51.424Z,8.57
2022-08-30T06:51:41.270Z,8.30
2022-08-30T06:54:29.737Z,8.63
2022-08-30T06:57:17.342Z,8.84
2022-08-30T07:00:04.927Z,9.49
2022-08-30T07:02:52.612Z,9.58
2022-08-30T07:05:40.435Z,8.93
2022-08-30T07:08:28.040Z,8.62
2022-08-30T07:11:15.622Z,8.08
2022-08-30T07:14:03.229Z,8.49
2022-08-30T07:16:51.334Z,8.57
2022-08-30T07:19:39.976Z,8.69
2022-08-30T07:22:29.545Z,8.67
2022-08-30T07:25:17.134Z,9.47
2022-08-30T07:28:07.527Z,9.72
2022-08-30T07:30:55.144Z,9.05
2022-08-30T07:33:42.801Z,9.36
2022-08-30T07:36:30.416Z,10.33
2022-08-30T07:39:18.015Z,9.67
2022-08-30T07:42:05.628Z,10.52
2022-08-30T07:44:56.623Z,11.24
2022-08-30T07:47:44.579Z,11.42
2022-08-30T07:50:32.177Z,11.31
2022-08-30T07:53:19.826Z,11.28
2022-08-30T07:56:07.490Z,12.15
2022-08-30T07:58:55.121Z,11.22
2022-08-30T08:01:42.789Z,11.37
2022-08-30T08:04:30.450Z,11.52
2022-08-30T08:07:18.051Z,11.55
2022-08-30T08:10:05.657Z,11.07
2022-08-30T08:12:53.267Z,11.20
2022-08-30T08:15:42.673Z,10.86
2022-08-30T08:18:30.306Z,10.26
2022-08-30T08:21:17.917Z,10.28
2022-08-30T08:24:05.537Z,10.49
2022-08-30T08:26:53.136Z,10.52
2022-08-30T08:29:40.780Z,9.54
2022-08-30T08:32:28.364Z,9.12
2022-08-30T08:35:15.971Z,9.31
2022-08-30T08:38:03.578Z,9.02
2022-08-30T08:40:51.180Z,8.82
2022-08-30T08:43:40.809Z,8.46
2022-08-30T08:46:28.454Z,8.73
2022-08-30T08:49:16.236Z,8.94
2022-08-30T08:52:03.833Z,8.28
2022-08-30T08:54:51.489Z,8.69
2022-08-30T08:57:39.084Z,9.24
2022-08-30T09:00:26.691Z,9.28
2022-08-30T09:03:14.279Z,8.56
2022-08-30T09:06:02.030Z,8.39
2022-08-30T09:08:49.857Z,8.73
2022-08-30T09:11:37.462Z,8.83
2022-08-30T09:14:25.414Z,9.12
2022-08-30T09:17:18.009Z,8.98
2022-08-30T09:20:05.986Z,9.03
2022-08-30T09:22:53.551Z,9.18
2022-08-30T09:25:42.007Z,8.86
2022-08-30T09:28:29.611Z,8.59
2022-08-30T09:31:17.303Z,9.08
2022-08-30T09:34:04.923Z,8.94
2022-08-30T09:36:52.547Z,8.50
2022-08-30T09:39:40.141Z,8.69
2022-08-30T09:42:27.771Z,7.22
2022-08-30T09:45:15.347Z,7.25
2022-08-30T09:48:02.963Z,7.00
2022-08-30T09:50:50.766Z,7.34
2022-08-30T09:54:01.097Z,7.56
2022-08-30T09:56:51.120Z,7.94
2022-08-30T09:59:38.931Z,7.23
2022-08-30T10:02:28.476Z,7.77
2022-08-30T10:05:17.888Z,9.35
2022-08-30T10:08:05.471Z,9.58
2022-08-30T10:10:53.186Z,9.60
2022-08-30T10:13:40.778Z,9.60
2022-08-30T10:16:28.408Z,9.82
2022-08-30T10:19:16.006Z,9.81
2022-08-30T10:22:03.726Z,9.54
2022-08-30T10:24:51.611Z,11.06
2022-08-30T10:27:39.241Z,10.85
2022-08-30T10:30:27.188Z,11.04
2022-08-30T10:33:15.231Z,10.53
2022-08-30T10:36:04.795Z,10.89
2022-08-30T10:38:58.167Z,10.85
2022-08-30T10:41:45.769Z,11.12
2022-08-30T10:44:33.639Z,11.13
2022-08-30T10:47:23.082Z,11.16
2022-08-30T10:50:11.179Z,10.81
2022-08-30T10:52:59.175Z,10.89
2022-08-30T10:55:49.980Z,10.58
2022-08-30T10:58:37.874Z,10.40
2022-08-30T11:01:28.303Z,10.57
2022-08-30T11:04:16.270Z,10.36
2022-08-30T11:07:09.671Z,10.15
2022-08-30T11:09:57.598Z,10.05
2022-08-30T11:12:45.201Z,9.76
2022-08-30T11:15:32.778Z,9.05
2022-08-30T11:18:21.809Z,9.53
2022-08-30T11:21:14.273Z,9.37
2022-08-30T11:24:01.981Z,8.82
2022-08-30T11:26:49.588Z,8.86
2022-08-30T11:29:37.186Z,9.45
2022-08-30T11:32:24.826Z,9.85
2022-08-30T11:35:12.488Z,10.56
2022-08-30T11:38:00.111Z,10.62
2022-08-30T11:40:47.709Z,10.77
2022-08-30T11:43:36.548Z,11.40
2022-08-30T11:46:24.665Z,11.41
2022-08-30T11:49:12.325Z,11.70
2022-08-30T11:52:26.934Z,11.26
2022-08-30T11:55:07.477Z,10.99
2022-08-30T11:57:55.087Z,11.64
2022-08-30T12:00:42.667Z,11.39
2022-08-30T12:03:31.417Z,11.51
2022-08-30T12:06:19.729Z,11.21
2022-08-30T12:09:12.320Z,11.38
2022-08-30T12:11:59.914Z,11.10
2022-08-30T12:14:47.938Z,12.05
2022-08-30T12:17:35.525Z,12.11
2022-08-30T12:20:23.196Z,12.63
2022-08-30T12:23:12.775Z,11.75
2022-08-30T12:26:00.389Z,11.66
2022-08-30T12:28:48.221Z,11.77
2022-08-30T12:31:36.216Z,11.31
2022-08-30T12:34:23.879Z,11.04
2022-08-30T12:37:12.263Z,10.40
2022-08-30T12:39:59.947Z,10.61
2022-08-30T12:42:47.596Z,11.46
2022-08-30T12:45:35.208Z,10.77
2022-08-30T12:48:23.256Z,10.59
2022-08-30T12:51:10.867Z,10.71
2022-08-30T12:53:58.958Z,10.17
2022-08-30T12:56:49.789Z,10.29
2022-08-30T12:59:37.877Z,9.79
2022-08-30T13:02:25.515Z,9.37
2022-08-30T13:05:13.264Z,9.32
2022-08-30T13:08:01.181Z,8.84
2022-08-30T13:10:48.788Z,8.79
2022-08-30T13:13:36.499Z,8.68
2022-08-30T13:16:24.139Z,8.68
2022-08-30T13:19:11.753Z,8.09
2022-08-30T13:21:59.519Z,8.05
2022-08-30T13:24:47.087Z,8.08
2022-08-30T13:27:36.918Z,7.92
2022-08-30T13:30:24.818Z,8.64
2022-08-30T13:33:13.504Z,8.86
2022-08-30T13:36:03.095Z,8.12
2022-08-30T13:38:50.687Z,8.17
2022-08-30T13:41:38.271Z,8.28
2022-08-30T13:44:28.164Z,8.04
2022-08-30T13:50:23.301Z,7.56
2022-08-30T13:53:11.085Z,8.01
2022-08-30T13:55:58.783Z,8.15
2022-08-30T13:58:46.461Z,8.46
2022-08-30T14:02:07.453Z,8.45
2022-08-30T14:04:41.803Z,8.16
2022-08-30T14:07:29.427Z,7.78
2022-08-30T14:10:32.869Z,8.45
2022-08-30T14:13:20.901Z,7.60
2022-08-30T14:16:27.580Z,7.82
2022-08-30T14:19:15.454Z,7.03
2022-08-30T14:22:03.069Z,6.83
2022-08-30T14:24:50.668Z,6.61
2022-08-30T14:27:38.361Z,6.75
2022-08-30T14:30:25.944Z,6.83
2022-08-30T14:33:13.633Z,7.17
2022-08-30T14:36:01.222Z,7.34
2022-08-30T14:38:48.827Z,7.59
2022-08-30T14:41:38.969Z,7.14
2022-08-30T14:44:41.274Z,7.58
2022-08-30T14:47:37.804Z,7.79
2022-08-30T14:50:25.542Z,7.63
2022-08-30T14:53:15.603Z,7.86
2022-08-30T14:56:04.360Z,8.09
2022-08-30T14:58:51.965Z,8.56
2022-08-30T15:01:39.550Z,8.65
2022-08-30T15:04:27.560Z,8.18
2022-08-30T15:07:15.194Z,8.26
2022-08-30T15:10:02.818Z,8.35
2022-08-30T15:12:50.399Z,8.65
2022-08-30T15:15:41.383Z,9.19
2022-08-30T15:18:30.954Z,9.45
2022-08-30T15:21:18.567Z,9.51
2022-08-30T15:24:06.307Z,9.86
2022-08-30T15:26:54.179Z,9.25
2022-08-30T15:29:42.481Z,9.90
2022-08-30T15:32:30.113Z,9.36
2022-08-30T15:35:19.683Z,9.25
2022-08-30T15:38:10.447Z,10.49
2022-08-30T15:41:00.100Z,11.43
2022-08-30T15:43:49.479Z,10.81
2022-08-30T15:46:37.110Z,11.58
2022-08-30T15:49:24.771Z,11.31
2022-08-30T15:52:12.368Z,9.98
2022-08-30T15:54:59.974Z,9.47
2022-08-30T15:57:47.561Z,8.20
2022-08-30T16:00:35.224Z,7.65
2022-08-30T16:03:22.848Z,8.04
2022-08-30T16:06:10.498Z,7.86
2022-08-30T16:08:58.243Z,7.83
2022-08-30T16:11:45.845Z,7.86
2022-08-30T16:14:34.211Z,7.85
2022-08-30T16:17:21.829Z,7.77
2022-08-30T16:20:09.633Z,7.63
2022-08-30T16:22:59.527Z,7.18
2022-08-30T16:25:47.100Z,6.94
2022-08-30T16:28:34.808Z,6.92
2022-08-30T16:31:24.475Z,5.46
2022-08-30T16:34:13.751Z,4.85
2022-08-30T16:37:01.332Z,4.49
2022-08-30T16:39:49.034Z,4.78
2022-08-30T16:42:37.037Z,4.45
2022-08-30T16:45:28.581Z,4.34
2022-08-30T16:48:18.959Z,4.44
2022-08-30T16:51:06.598Z,4.26
2022-08-30T16:53:55.762Z,4.03
2022-08-30T16:56:43.390Z,3.91
2022-08-30T16:59:32.642Z,4.29
2022-08-30T17:02:20.470Z,3.80
2022-08-30T17:05:08.137Z,4.13
2022-08-30T17:07:59.981Z,4.15
2022-08-30T17:10:51.000Z,4.26
2022-08-30T17:13:39.149Z,4.39
2022-08-30T17:16:27.939Z,4.31
2022-08-30T17:19:16.291Z,4.30
2022-08-30T17:22:16.485Z,4.96
2022-08-30T17:25:04.092Z,5.34
2022-08-30T17:27:52.878Z,5.25
2022-08-30T17:30:40.873Z,4.14
2022-08-30T17:33:30.468Z,2.78
2022-08-30T17:36:18.063Z,1.81
2022-08-30T17:39:11.440Z,1.60
2022-08-30T17:42:00.891Z,1.49
2022-08-30T17:44:48.632Z,1.70
2022-08-30T17:47:36.511Z,1.85
2022-08-30T17:50:24.180Z,2.02
2022-08-30T17:53:15.670Z,2.15
2022-08-30T17:56:04.691Z,2.11
2022-08-30T17:58:52.300Z,2.03
2022-08-30T18:01:40.203Z,2.23
2022-08-30T18:04:27.800Z,2.31
2022-08-30T18:07:15.372Z,2.20
2022-08-30T18:10:02.986Z,2.60
2022-08-30T18:12:50.608Z,2.68
2022-08-30T18:15:38.461Z,2.66
2022-08-30T18:18:31.973Z,2.59
2022-08-30T18:21:19.626Z,2.42
2022-08-30T18:24:09.747Z,1.78
2022-08-30T18:27:00.302Z,1.51
2022-08-30T18:29:49.930Z,1.55
2022-08-30T18:32:38.086Z,1.77
2022-08-30T18:35:25.936Z,1.88
2022-08-30T18:38:13.578Z,1.83
2022-08-30T18:41:02.330Z,1.93
2022-08-30T18:44:01.854Z,2.28
2022-08-30T18:46:57.501Z,1.85
2022-08-30T18:49:45.130Z,1.28
2022-08-30T18:52:32.741Z,1.70
2022-08-30T18:55:20.349Z,1.81
2022-08-30T18:58:08.142Z,2.77
2022-08-30T19:00:58.591Z,3.41
2022-08-30T19:03:46.187Z,3.74
2022-08-30T19:06:34.971Z,4.46
2022-08-30T19:09:26.667Z,4.75
2022-08-30T19:12:14.349Z,4.98
2022-08-30T19:15:01.953Z,5.62
2022-08-30T19:17:58.724Z,5.22
2022-08-30T19:20:46.341Z,5.54
2022-08-30T19:23:34.954Z,5.76
2022-08-30T19:26:22.563Z,5.67
2022-08-30T19:29:10.141Z,5.74
2022-08-30T19:31:58.415Z,6.22
2022-08-30T19:34:46.267Z,5.99
2022-08-30T19:37:34.393Z,6.26
2022-08-30T19:40:24.121Z,6.16
2022-08-30T19:43:13.238Z,5.88
2022-08-30T19:46:00.945Z,6.03
2022-08-30T19:48:48.556Z,5.74
2022-08-30T19:51:36.142Z,5.52
2022-08-30T19:54:24.282Z,5.96
2022-08-30T19:57:11.855Z,5.61
2022-08-30T20:00:01.823Z,5.64
2022-08-30T20:02:50.843Z,5.85
2022-08-30T20:05:39.591Z,6.12
2022-08-30T20:08:27.186Z,6.33
2022-08-30T20:11:14.816Z,6.59
2022-08-30T20:14:02.399Z,6.32
2022-08-30T20:16:52.506Z,6.59
2022-08-30T20:19:40.106Z,6.68
2022-08-30T20:22:27.719Z,6.74
2022-08-30T20:25:18.931Z,6.78
2022-08-30T20:28:06.709Z,6.51
2022-08-30T20:30:54.331Z,6.54
2022-08-30T20:33:42.027Z,6.44
2022-08-30T20:36:29.603Z,5.82
2022-08-30T20:39:17.374Z,6.15
2022-08-30T20:42:05.273Z,6.31
2022-08-30T20:44:52.936Z,6.52
2022-08-30T20:47:40.539Z,6.29
2022-08-30T20:50:28.146Z,6.17
2022-08-30T20:53:15.735Z,5.77
2022-08-30T20:56:03.343Z,6.13
2022-08-30T20:58:50.910Z,5.89
2022-08-30T21:01:38.559Z,5.52
2022-08-30T21:04:26.192Z,5.52
2022-08-30T21:07:13.770Z,5.57
2022-08-30T21:10:01.393Z,5.44
2022-08-30T21:12:48.998Z,5.04
2022-08-30T21:15:37.938Z,5.29
2022-08-30T21:18:25.817Z,4.96
2022-08-30T21:21:13.470Z,4.96
2022-08-30T21:24:01.089Z,4.98
2022-08-30T21:26:48.674Z,4.93
2022-08-30T21:29:36.273Z,4.95
2022-08-30T21:32:25.905Z,5.07
2022-08-30T21:35:13.530Z,5.11
2022-08-30T21:38:01.145Z,5.23
2022-08-30T21:40:48.818Z,5.09
2022-08-30T21:43:36.524Z,5.23
2022-08-30T21:46:24.166Z,4.90
2022-08-30T21:49:11.794Z,5.48
2022-08-30T21:51:59.377Z,5.69
2022-08-30T21:54:46.987Z,5.44
2022-08-30T21:57:34.576Z,5.28
2022-08-30T22:00:22.179Z,5.36
2022-08-30T22:03:09.796Z,5.40
2022-08-30T22:05:57.553Z,5.44
2022-08-30T22:08:45.131Z,5.42
2022-08-30T22:11:32.745Z,6.35
2022-08-30T22:14:20.331Z,6.11
2022-08-30T22:17:07.980Z,6.35
2022-08-30T22:19:55.624Z,5.78
2022-08-30T22:22:43.230Z,5.39
2022-08-30T22:25:30.808Z,5.73
2022-08-30T22:28:18.413Z,5.11
2022-08-30T22:31:05.984Z,4.04
2022-08-30T22:33:53.563Z,3.54
2022-08-30T22:36:41.155Z,3.51
2022-08-30T22:39:28.859Z,4.58
2022-08-30T22:42:18.450Z,4.49
2022-08-30T22:45:06.132Z,4.74
2022-08-30T22:47:57.817Z,4.56
2022-08-30T22:50:45.413Z,4.83
2022-08-30T22:53:33.015Z,4.27
2022-08-30T22:56:21.566Z,4.50
2022-08-30T22:59:09.173Z,4.81
2022-08-30T23:01:56.902Z,5.15
2022-08-30T23:04:44.545Z,4.85
2022-08-30T23:07:32.146Z,4.90
2022-08-30T23:10:19.829Z,4.89
2022-08-30T23:13:07.571Z,4.86
2022-08-30T23:15:55.197Z,4.90
2022-08-30T23:18:42.791Z,4.43
2022-08-30T23:21:30.392Z,4.72
2022-08-30T23:24:17.977Z,4.65
2022-08-30T23:27:05.604Z,4.86
2022-08-30T23:29:53.246Z,4.87
2022-08-30T23:32:40.853Z,4.62
2022-08-30T23:35:29.703Z,4.47
2022-08-30T23:38:17.467Z,4.38
2022-08-30T23:41:05.032Z,4.16
2022-08-30T23:43:52.625Z,4.13
2022-08-30T23:46:41.750Z,3.89
2022-08-30T23:49:29.343Z,3.86
2022-08-30T23:52:16.933Z,4.32
2022-08-30T23:55:04.632Z,3.93
2022-08-30T23:57:52.218Z,3.96
